sensor_id;sensor_type;location;lat;lon;timestamp;temperature;humidity
11666;DHT22;5889;51.350;6.708;2023-11-21T00:02:08;8.90;99.90
11666;DHT22;5889;51.350;6.708;2023-11-21T00:04:35;8.80;99.90
11666;DHT22;5889;51.350;6.708;2023-11-21T00:07:01;8.80;99.90
11666;DHT22;5889;51.350;6.708;2023-11-21T00:09:28;8.80;99.90
11666;DHT22;5889;51.350;6.708;2023-11-21T00:11:55;8.70;99.90
11666;DHT22;5889;51.350;6.708;2023-11-21T00:14:22;8.70;99.90
11666;DHT22;5889;51.350;6.708;2023-11-21T00:16:48;8.70;99.90
11666;DHT22;5889;51.350;6.708;2023-11-21T00:19:16;8.60;99.90
11666;DHT22;5889;51.350;6.708;2023-11-21T00:21:43;8.60;99.90
11666;DHT22;5889;51.350;6.708;2023-11-21T00:24:11;8.50;99.90
11666;DHT22;5889;51.350;6.708;2023-11-21T00:26:39;8.50;99.90
11666;DHT22;5889;51.350;6.708;2023-11-21T00:29:06;8.50;99.90
11666;DHT22;5889;51.350;6.708;2023-11-21T00:31:33;8.50;99.90
11666;DHT22;5889;51.350;6.708;2023-11-21T00:34:02;8.40;99.90
11666;DHT22;5889;51.350;6.708;2023-11-21T00:36:32;8.50;99.90
11666;DHT22;5889;51.350;6.708;2023-11-21T00:38:59;8.50;99.90
11666;DHT22;5889;51.350;6.708;2023-11-21T00:41:26;8.50;99.90
11666;DHT22;5889;51.350;6.708;2023-11-21T00:43:53;8.50;99.90
11666;DHT22;5889;51.350;6.708;2023-11-21T00:46:20;8.60;99.90
11666;DHT22;5889;51.350;6.708;2023-11-21T00:48:47;8.60;99.90
11666;DHT22;5889;51.350;6.708;2023-11-21T00:51:14;8.60;99.90
11666;DHT22;5889;51.350;6.708;2023-11-21T00:53:42;8.60;99.90
11666;DHT22;5889;51.350;6.708;2023-11-21T00:56:09;8.70;99.90
11666;DHT22;5889;51.350;6.708;2023-11-21T00:58:35;8.70;99.90
11666;DHT22;5889;51.350;6.708;2023-11-21T01:01:01;8.70;99.90
11666;DHT22;5889;51.350;6.708;2023-11-21T01:03:29;8.70;99.90
11666;DHT22;5889;51.350;6.708;2023-11-21T01:05:55;8.70;99.90
11666;DHT22;5889;51.350;6.708;2023-11-21T01:08:22;8.70;99.90
11666;DHT22;5889;51.350;6.708;2023-11-21T01:10:51;8.70;99.90
11666;DHT22;5889;51.350;6.708;2023-11-21T01:13:18;8.70;99.90
11666;DHT22;5889;51.350;6.708;2023-11-21T01:15:45;8.70;99.90
11666;DHT22;5889;51.350;6.708;2023-11-21T01:18:11;8.70;99.90
11666;DHT22;5889;51.350;6.708;2023-11-21T01:20:38;8.70;99.90
11666;DHT22;5889;51.350;6.708;2023-11-21T01:23:05;8.70;99.90
11666;DHT22;5889;51.350;6.708;2023-11-21T01:25:32;8.70;99.90
11666;DHT22;5889;51.350;6.708;2023-11-21T01:28:00;8.80;99.90
11666;DHT22;5889;51.350;6.708;2023-11-21T01:30:27;8.80;99.90
11666;DHT22;5889;51.350;6.708;2023-11-21T01:32:54;8.80;99.90
11666;DHT22;5889;51.350;6.708;2023-11-21T01:35:20;8.90;99.90
11666;DHT22;5889;51.350;6.708;2023-11-21T01:37:47;8.80;99.90
11666;DHT22;5889;51.350;6.708;2023-11-21T01:40:14;8.90;99.90
11666;DHT22;5889;51.350;6.708;2023-11-21T01:42:42;8.90;99.90
11666;DHT22;5889;51.350;6.708;2023-11-21T01:45:11;8.90;99.90
11666;DHT22;5889;51.350;6.708;2023-11-21T01:47:38;8.90;99.90
11666;DHT22;5889;51.350;6.708;2023-11-21T01:50:07;8.90;99.90
11666;DHT22;5889;51.350;6.708;2023-11-21T01:52:38;8.90;99.90
11666;DHT22;5889;51.350;6.708;2023-11-21T01:55:08;8.80;99.90
11666;DHT22;5889;51.350;6.708;2023-11-21T01:57:35;8.80;99.90
11666;DHT22;5889;51.350;6.708;2023-11-21T02:00:04;8.80;99.90
11666;DHT22;5889;51.350;6.708;2023-11-21T02:02:42;8.80;99.90
11666;DHT22;5889;51.350;6.708;2023-11-21T02:05:09;8.80;99.90
11666;DHT22;5889;51.350;6.708;2023-11-21T02:07:38;8.80;99.90
11666;DHT22;5889;51.350;6.708;2023-11-21T02:10:05;8.80;99.90
11666;DHT22;5889;51.350;6.708;2023-11-21T02:12:33;8.80;99.90
11666;DHT22;5889;51.350;6.708;2023-11-21T02:15:00;8.80;99.90
11666;DHT22;5889;51.350;6.708;2023-11-21T02:17:28;8.80;99.90
11666;DHT22;5889;51.350;6.708;2023-11-21T02:19:56;8.80;99.90
11666;DHT22;5889;51.350;6.708;2023-11-21T02:22:26;8.80;99.90
11666;DHT22;5889;51.350;6.708;2023-11-21T02:24:55;8.80;99.90
11666;DHT22;5889;51.350;6.708;2023-11-21T02:27:23;8.80;99.90
11666;DHT22;5889;51.350;6.708;2023-11-21T02:29:50;8.80;99.90
11666;DHT22;5889;51.350;6.708;2023-11-21T02:32:16;8.80;99.90
11666;DHT22;5889;51.350;6.708;2023-11-21T02:34:44;8.80;99.90
11666;DHT22;5889;51.350;6.708;2023-11-21T02:37:11;8.90;99.90
11666;DHT22;5889;51.350;6.708;2023-11-21T02:39:38;8.90;99.90
11666;DHT22;5889;51.350;6.708;2023-11-21T02:42:07;8.90;99.90
11666;DHT22;5889;51.350;6.708;2023-11-21T02:44:33;8.90;99.90
11666;DHT22;5889;51.350;6.708;2023-11-21T02:47:01;8.90;99.90
11666;DHT22;5889;51.350;6.708;2023-11-21T02:49:27;9.00;99.90
11666;DHT22;5889;51.350;6.708;2023-11-21T02:51:54;9.00;99.90
11666;DHT22;5889;51.350;6.708;2023-11-21T02:54:21;9.00;99.90
11666;DHT22;5889;51.350;6.708;2023-11-21T02:56:48;9.00;99.90
11666;DHT22;5889;51.350;6.708;2023-11-21T02:59:17;9.00;99.90
11666;DHT22;5889;51.350;6.708;2023-11-21T03:01:44;9.00;99.90
11666;DHT22;5889;51.350;6.708;2023-11-21T03:04:11;9.10;99.90
11666;DHT22;5889;51.350;6.708;2023-11-21T03:06:43;9.10;99.90
11666;DHT22;5889;51.350;6.708;2023-11-21T03:09:10;9.10;99.90
11666;DHT22;5889;51.350;6.708;2023-11-21T03:11:38;9.10;99.90
11666;DHT22;5889;51.350;6.708;2023-11-21T03:14:05;9.20;99.90
11666;DHT22;5889;51.350;6.708;2023-11-21T03:16:33;9.20;99.90
11666;DHT22;5889;51.350;6.708;2023-11-21T03:19:00;9.20;99.90
11666;DHT22;5889;51.350;6.708;2023-11-21T03:21:27;9.30;99.90
11666;DHT22;5889;51.350;6.708;2023-11-21T03:23:54;9.20;99.90
11666;DHT22;5889;51.350;6.708;2023-11-21T03:26:21;9.20;99.90
11666;DHT22;5889;51.350;6.708;2023-11-21T03:28:48;9.20;99.90
11666;DHT22;5889;51.350;6.708;2023-11-21T03:31:15;9.20;99.90
11666;DHT22;5889;51.350;6.708;2023-11-21T03:33:45;9.20;99.90
11666;DHT22;5889;51.350;6.708;2023-11-21T03:36:12;9.20;99.90
11666;DHT22;5889;51.350;6.708;2023-11-21T03:38:40;9.20;99.90
11666;DHT22;5889;51.350;6.708;2023-11-21T03:41:07;9.20;99.90
11666;DHT22;5889;51.350;6.708;2023-11-21T03:43:35;9.20;99.90
11666;DHT22;5889;51.350;6.708;2023-11-21T03:46:02;9.20;99.90
11666;DHT22;5889;51.350;6.708;2023-11-21T03:48:29;9.30;99.90
11666;DHT22;5889;51.350;6.708;2023-11-21T03:50:57;9.30;99.90
11666;DHT22;5889;51.350;6.708;2023-11-21T03:53:23;9.30;99.90
11666;DHT22;5889;51.350;6.708;2023-11-21T03:55:50;9.30;99.90
11666;DHT22;5889;51.350;6.708;2023-11-21T03:58:17;9.30;99.90
11666;DHT22;5889;51.350;6.708;2023-11-21T04:00:47;9.30;99.90
11666;DHT22;5889;51.350;6.708;2023-11-21T04:03:30;9.30;99.90
11666;DHT22;5889;51.350;6.708;2023-11-21T04:05:58;9.30;99.90
11666;DHT22;5889;51.350;6.708;2023-11-21T04:08:26;9.40;99.90
11666;DHT22;5889;51.350;6.708;2023-11-21T04:10:53;9.40;99.90
11666;DHT22;5889;51.350;6.708;2023-11-21T04:13:20;9.40;99.90
11666;DHT22;5889;51.350;6.708;2023-11-21T04:15:47;9.40;99.90
11666;DHT22;5889;51.350;6.708;2023-11-21T04:18:14;9.40;99.90
11666;DHT22;5889;51.350;6.708;2023-11-21T04:20:40;9.40;99.90
11666;DHT22;5889;51.350;6.708;2023-11-21T04:23:08;9.40;99.90
11666;DHT22;5889;51.350;6.708;2023-11-21T04:25:35;9.40;99.90
11666;DHT22;5889;51.350;6.708;2023-11-21T04:28:02;9.40;99.90
11666;DHT22;5889;51.350;6.708;2023-11-21T04:30:29;9.40;99.90
11666;DHT22;5889;51.350;6.708;2023-11-21T04:32:56;9.40;99.90
11666;DHT22;5889;51.350;6.708;2023-11-21T04:35:23;9.40;99.90
11666;DHT22;5889;51.350;6.708;2023-11-21T04:37:49;9.40;99.90
11666;DHT22;5889;51.350;6.708;2023-11-21T04:40:18;9.30;99.90
11666;DHT22;5889;51.350;6.708;2023-11-21T04:42:46;9.30;99.90
11666;DHT22;5889;51.350;6.708;2023-11-21T04:45:13;9.30;99.90
11666;DHT22;5889;51.350;6.708;2023-11-21T04:47:41;9.30;99.90
11666;DHT22;5889;51.350;6.708;2023-11-21T04:50:09;9.30;99.90
11666;DHT22;5889;51.350;6.708;2023-11-21T04:52:36;9.30;99.90
11666;DHT22;5889;51.350;6.708;2023-11-21T04:55:03;9.30;99.90
11666;DHT22;5889;51.350;6.708;2023-11-21T04:57:33;9.30;99.90
11666;DHT22;5889;51.350;6.708;2023-11-21T05:00:00;9.30;99.90
11666;DHT22;5889;51.350;6.708;2023-11-21T05:02:27;9.30;99.90
11666;DHT22;5889;51.350;6.708;2023-11-21T05:04:53;9.30;99.90
11666;DHT22;5889;51.350;6.708;2023-11-21T05:07:22;9.30;99.90
11666;DHT22;5889;51.350;6.708;2023-11-21T05:09:49;9.30;99.90
11666;DHT22;5889;51.350;6.708;2023-11-21T05:12:15;9.30;99.90
11666;DHT22;5889;51.350;6.708;2023-11-21T05:14:43;9.30;99.90
11666;DHT22;5889;51.350;6.708;2023-11-21T05:17:10;9.30;99.90
11666;DHT22;5889;51.350;6.708;2023-11-21T05:19:37;9.30;99.90
11666;DHT22;5889;51.350;6.708;2023-11-21T05:22:05;9.30;99.90
11666;DHT22;5889;51.350;6.708;2023-11-21T05:24:33;9.30;99.90
11666;DHT22;5889;51.350;6.708;2023-11-21T05:27:00;9.30;99.90
11666;DHT22;5889;51.350;6.708;2023-11-21T05:29:27;9.30;99.90
11666;DHT22;5889;51.350;6.708;2023-11-21T05:31:55;9.30;99.90
11666;DHT22;5889;51.350;6.708;2023-11-21T05:34:22;9.30;99.90
11666;DHT22;5889;51.350;6.708;2023-11-21T05:36:49;9.30;99.90
11666;DHT22;5889;51.350;6.708;2023-11-21T05:39:16;9.30;99.90
11666;DHT22;5889;51.350;6.708;2023-11-21T05:41:44;9.20;99.90
11666;DHT22;5889;51.350;6.708;2023-11-21T05:44:11;9.20;99.90
11666;DHT22;5889;51.350;6.708;2023-11-21T05:46:40;9.10;99.90
11666;DHT22;5889;51.350;6.708;2023-11-21T05:49:10;9.00;99.90
11666;DHT22;5889;51.350;6.708;2023-11-21T05:51:37;9.00;99.90
11666;DHT22;5889;51.350;6.708;2023-11-21T05:54:04;9.00;99.90
11666;DHT22;5889;51.350;6.708;2023-11-21T05:56:31;8.90;99.90
11666;DHT22;5889;51.350;6.708;2023-11-21T05:58:58;8.90;99.90
11666;DHT22;5889;51.350;6.708;2023-11-21T06:01:25;8.80;99.90
11666;DHT22;5889;51.350;6.708;2023-11-21T06:03:53;8.80;99.90
11666;DHT22;5889;51.350;6.708;2023-11-21T06:06:21;8.70;99.90
11666;DHT22;5889;51.350;6.708;2023-11-21T06:08:50;8.70;99.90
11666;DHT22;5889;51.350;6.708;2023-11-21T06:11:16;8.70;99.90
11666;DHT22;5889;51.350;6.708;2023-11-21T06:13:44;8.60;99.90
11666;DHT22;5889;51.350;6.708;2023-11-21T06:16:10;8.60;99.90
11666;DHT22;5889;51.350;6.708;2023-11-21T06:18:40;8.50;99.90
11666;DHT22;5889;51.350;6.708;2023-11-21T06:21:09;8.50;99.90
11666;DHT22;5889;51.350;6.708;2023-11-21T06:23:37;8.50;99.90
11666;DHT22;5889;51.350;6.708;2023-11-21T06:26:04;8.50;99.90
11666;DHT22;5889;51.350;6.708;2023-11-21T06:28:31;8.40;99.90
11666;DHT22;5889;51.350;6.708;2023-11-21T06:30:58;8.40;99.90
11666;DHT22;5889;51.350;6.708;2023-11-21T06:33:30;8.40;99.90
11666;DHT22;5889;51.350;6.708;2023-11-21T06:35:57;8.30;99.90
11666;DHT22;5889;51.350;6.708;2023-11-21T06:38:24;8.40;99.90
11666;DHT22;5889;51.350;6.708;2023-11-21T06:40:57;8.30;99.90
11666;DHT22;5889;51.350;6.708;2023-11-21T06:43:23;8.40;99.90
11666;DHT22;5889;51.350;6.708;2023-11-21T06:45:50;8.40;99.90
11666;DHT22;5889;51.350;6.708;2023-11-21T06:48:17;8.40;99.90
11666;DHT22;5889;51.350;6.708;2023-11-21T06:50:44;8.40;99.90
11666;DHT22;5889;51.350;6.708;2023-11-21T06:53:12;8.40;99.90
11666;DHT22;5889;51.350;6.708;2023-11-21T06:55:39;8.50;99.90
11666;DHT22;5889;51.350;6.708;2023-11-21T06:58:07;8.50;99.90
11666;DHT22;5889;51.350;6.708;2023-11-21T07:00:34;8.60;99.90
11666;DHT22;5889;51.350;6.708;2023-11-21T07:03:00;8.60;99.90
11666;DHT22;5889;51.350;6.708;2023-11-21T07:05:27;8.60;99.90
11666;DHT22;5889;51.350;6.708;2023-11-21T07:07:57;8.60;99.90
11666;DHT22;5889;51.350;6.708;2023-11-21T07:10:29;8.70;99.90
11666;DHT22;5889;51.350;6.708;2023-11-21T07:12:56;8.70;99.90
11666;DHT22;5889;51.350;6.708;2023-11-21T07:15:25;8.70;99.90
11666;DHT22;5889;51.350;6.708;2023-11-21T07:17:52;8.80;99.90
11666;DHT22;5889;51.350;6.708;2023-11-21T07:20:19;8.80;99.90
11666;DHT22;5889;51.350;6.708;2023-11-21T07:22:47;8.80;99.90
11666;DHT22;5889;51.350;6.708;2023-11-21T07:25:13;8.80;99.90
11666;DHT22;5889;51.350;6.708;2023-11-21T07:27:40;8.70;99.90
11666;DHT22;5889;51.350;6.708;2023-11-21T07:30:08;8.80;99.90
11666;DHT22;5889;51.350;6.708;2023-11-21T07:32:37;8.80;99.90
11666;DHT22;5889;51.350;6.708;2023-11-21T07:35:05;8.80;99.90
11666;DHT22;5889;51.350;6.708;2023-11-21T07:37:33;8.90;99.90
11666;DHT22;5889;51.350;6.708;2023-11-21T07:40:00;9.00;99.90
11666;DHT22;5889;51.350;6.708;2023-11-21T07:42:28;9.00;99.90
11666;DHT22;5889;51.350;6.708;2023-11-21T07:44:55;9.00;99.90
11666;DHT22;5889;51.350;6.708;2023-11-21T07:47:21;9.10;99.90
11666;DHT22;5889;51.350;6.708;2023-11-21T07:49:53;9.10;99.90
11666;DHT22;5889;51.350;6.708;2023-11-21T07:52:21;9.10;99.90
11666;DHT22;5889;51.350;6.708;2023-11-21T07:54:48;9.10;99.90
11666;DHT22;5889;51.350;6.708;2023-11-21T07:57:16;9.00;99.90
11666;DHT22;5889;51.350;6.708;2023-11-21T07:59:43;9.00;99.90
11666;DHT22;5889;51.350;6.708;2023-11-21T08:02:10;9.00;99.90
11666;DHT22;5889;51.350;6.708;2023-11-21T08:04:36;9.10;99.90
11666;DHT22;5889;51.350;6.708;2023-11-21T08:07:04;9.10;99.90
11666;DHT22;5889;51.350;6.708;2023-11-21T08:09:31;9.10;99.90
11666;DHT22;5889;51.350;6.708;2023-11-21T08:11:59;9.20;99.90
11666;DHT22;5889;51.350;6.708;2023-11-21T08:14:28;9.20;99.90
11666;DHT22;5889;51.350;6.708;2023-11-21T08:16:54;9.20;99.90
11666;DHT22;5889;51.350;6.708;2023-11-21T08:19:23;9.20;99.90
11666;DHT22;5889;51.350;6.708;2023-11-21T08:21:50;9.10;99.90
11666;DHT22;5889;51.350;6.708;2023-11-21T08:24:21;9.10;99.90
11666;DHT22;5889;51.350;6.708;2023-11-21T08:26:48;9.00;99.90
11666;DHT22;5889;51.350;6.708;2023-11-21T08:29:15;9.00;99.90
11666;DHT22;5889;51.350;6.708;2023-11-21T08:31:42;8.90;99.90
11666;DHT22;5889;51.350;6.708;2023-11-21T08:34:10;9.00;99.90
11666;DHT22;5889;51.350;6.708;2023-11-21T08:36:41;9.00;99.90
11666;DHT22;5889;51.350;6.708;2023-11-21T08:39:08;9.10;99.90
11666;DHT22;5889;51.350;6.708;2023-11-21T08:41:37;9.10;99.90
11666;DHT22;5889;51.350;6.708;2023-11-21T08:44:04;9.20;99.90
11666;DHT22;5889;51.350;6.708;2023-11-21T08:46:37;9.40;99.90
11666;DHT22;5889;51.350;6.708;2023-11-21T08:49:05;9.40;99.90
11666;DHT22;5889;51.350;6.708;2023-11-21T08:51:32;9.40;99.90
11666;DHT22;5889;51.350;6.708;2023-11-21T08:54:04;9.50;99.90
11666;DHT22;5889;51.350;6.708;2023-11-21T08:56:33;9.50;99.90
11666;DHT22;5889;51.350;6.708;2023-11-21T08:59:01;9.60;99.90
11666;DHT22;5889;51.350;6.708;2023-11-21T09:01:28;9.60;99.90
11666;DHT22;5889;51.350;6.708;2023-11-21T09:03:56;9.60;99.90
11666;DHT22;5889;51.350;6.708;2023-11-21T09:06:23;9.60;99.90
11666;DHT22;5889;51.350;6.708;2023-11-21T09:08:50;9.70;99.90
11666;DHT22;5889;51.350;6.708;2023-11-21T09:11:17;9.70;99.90
11666;DHT22;5889;51.350;6.708;2023-11-21T09:13:44;9.70;99.90
11666;DHT22;5889;51.350;6.708;2023-11-21T09:16:13;9.80;99.90
11666;DHT22;5889;51.350;6.708;2023-11-21T09:18:41;9.80;99.90
11666;DHT22;5889;51.350;6.708;2023-11-21T09:21:07;9.80;99.90
11666;DHT22;5889;51.350;6.708;2023-11-21T09:23:37;9.80;99.90
11666;DHT22;5889;51.350;6.708;2023-11-21T09:26:05;9.80;99.90
11666;DHT22;5889;51.350;6.708;2023-11-21T09:28:31;9.70;99.90
11666;DHT22;5889;51.350;6.708;2023-11-21T09:30:58;9.80;99.90
11666;DHT22;5889;51.350;6.708;2023-11-21T09:33:27;9.70;99.90
11666;DHT22;5889;51.350;6.708;2023-11-21T09:35:55;9.70;99.90
11666;DHT22;5889;51.350;6.708;2023-11-21T09:38:22;9.80;99.90
11666;DHT22;5889;51.350;6.708;2023-11-21T09:40:49;9.80;99.90
11666;DHT22;5889;51.350;6.708;2023-11-21T09:43:18;9.80;99.90
11666;DHT22;5889;51.350;6.708;2023-11-21T09:45:47;9.80;99.90
11666;DHT22;5889;51.350;6.708;2023-11-21T09:48:17;9.90;99.90
11666;DHT22;5889;51.350;6.708;2023-11-21T09:50:47;10.00;99.90
11666;DHT22;5889;51.350;6.708;2023-11-21T09:53:16;10.00;99.90
11666;DHT22;5889;51.350;6.708;2023-11-21T09:55:45;10.10;99.90
11666;DHT22;5889;51.350;6.708;2023-11-21T09:58:14;10.10;99.90
11666;DHT22;5889;51.350;6.708;2023-11-21T10:00:42;10.10;99.90
11666;DHT22;5889;51.350;6.708;2023-11-21T10:03:09;10.00;99.90
11666;DHT22;5889;51.350;6.708;2023-11-21T10:05:35;10.00;99.90
11666;DHT22;5889;51.350;6.708;2023-11-21T10:08:07;10.10;99.90
11666;DHT22;5889;51.350;6.708;2023-11-21T10:10:35;10.10;99.90
11666;DHT22;5889;51.350;6.708;2023-11-21T10:13:03;10.20;99.90
11666;DHT22;5889;51.350;6.708;2023-11-21T10:15:33;10.20;99.90
11666;DHT22;5889;51.350;6.708;2023-11-21T10:18:02;10.30;99.90
11666;DHT22;5889;51.350;6.708;2023-11-21T10:20:30;10.20;99.90
11666;DHT22;5889;51.350;6.708;2023-11-21T10:22:59;10.30;99.90
11666;DHT22;5889;51.350;6.708;2023-11-21T10:25:28;10.40;99.90
11666;DHT22;5889;51.350;6.708;2023-11-21T10:27:59;10.50;99.90
11666;DHT22;5889;51.350;6.708;2023-11-21T10:30:32;10.50;99.90
11666;DHT22;5889;51.350;6.708;2023-11-21T10:33:03;10.50;99.90
11666;DHT22;5889;51.350;6.708;2023-11-21T10:35:48;10.40;99.90
11666;DHT22;5889;51.350;6.708;2023-11-21T10:38:16;10.30;99.90
11666;DHT22;5889;51.350;6.708;2023-11-21T10:40:44;10.20;99.90
11666;DHT22;5889;51.350;6.708;2023-11-21T10:43:13;10.20;99.90
11666;DHT22;5889;51.350;6.708;2023-11-21T10:45:41;10.20;99.90
11666;DHT22;5889;51.350;6.708;2023-11-21T10:48:10;10.30;99.90
11666;DHT22;5889;51.350;6.708;2023-11-21T10:50:40;10.30;99.90
11666;DHT22;5889;51.350;6.708;2023-11-21T10:53:08;10.20;99.90
11666;DHT22;5889;51.350;6.708;2023-11-21T10:55:35;10.20;99.90
11666;DHT22;5889;51.350;6.708;2023-11-21T10:58:04;10.20;99.90
11666;DHT22;5889;51.350;6.708;2023-11-21T11:00:33;10.20;99.90
11666;DHT22;5889;51.350;6.708;2023-11-21T11:03:00;10.20;99.90
11666;DHT22;5889;51.350;6.708;2023-11-21T11:05:28;10.20;99.90
11666;DHT22;5889;51.350;6.708;2023-11-21T11:07:58;10.20;99.90
11666;DHT22;5889;51.350;6.708;2023-11-21T11:10:27;10.30;99.90
11666;DHT22;5889;51.350;6.708;2023-11-21T11:12:55;10.40;99.90
11666;DHT22;5889;51.350;6.708;2023-11-21T11:15:24;10.40;99.90
11666;DHT22;5889;51.350;6.708;2023-11-21T11:17:52;10.50;99.90
11666;DHT22;5889;51.350;6.708;2023-11-21T11:20:23;10.50;99.90
11666;DHT22;5889;51.350;6.708;2023-11-21T11:23:04;10.60;99.90
11666;DHT22;5889;51.350;6.708;2023-11-21T11:25:50;10.60;99.90
11666;DHT22;5889;51.350;6.708;2023-11-21T11:28:21;10.60;99.90
11666;DHT22;5889;51.350;6.708;2023-11-21T11:31:00;10.60;99.90
11666;DHT22;5889;51.350;6.708;2023-11-21T11:33:37;10.60;99.90
11666;DHT22;5889;51.350;6.708;2023-11-21T11:36:10;10.50;99.90
11666;DHT22;5889;51.350;6.708;2023-11-21T11:38:37;10.50;99.90
11666;DHT22;5889;51.350;6.708;2023-11-21T11:41:05;10.60;99.90
11666;DHT22;5889;51.350;6.708;2023-11-21T11:43:32;10.60;99.90
11666;DHT22;5889;51.350;6.708;2023-11-21T11:46:42;10.60;99.90
11666;DHT22;5889;51.350;6.708;2023-11-21T11:49:23;10.50;99.90
11666;DHT22;5889;51.350;6.708;2023-11-21T11:54:53;10.40;99.90
11666;DHT22;5889;51.350;6.708;2023-11-21T11:57:19;10.50;99.90
11666;DHT22;5889;51.350;6.708;2023-11-21T12:00:13;10.40;99.90
11666;DHT22;5889;51.350;6.708;2023-11-21T12:02:44;10.40;99.90
11666;DHT22;5889;51.350;6.708;2023-11-21T12:05:13;10.40;99.90
11666;DHT22;5889;51.350;6.708;2023-11-21T12:07:48;10.40;99.90
11666;DHT22;5889;51.350;6.708;2023-11-21T12:10:16;10.40;99.90
11666;DHT22;5889;51.350;6.708;2023-11-21T12:12:45;10.40;99.90
11666;DHT22;5889;51.350;6.708;2023-11-21T12:15:12;10.40;99.90
11666;DHT22;5889;51.350;6.708;2023-11-21T12:17:39;10.30;99.90
11666;DHT22;5889;51.350;6.708;2023-11-21T12:20:09;10.40;99.90
11666;DHT22;5889;51.350;6.708;2023-11-21T12:23:18;10.50;99.90
11666;DHT22;5889;51.350;6.708;2023-11-21T12:25:46;10.60;99.90
11666;DHT22;5889;51.350;6.708;2023-11-21T12:28:13;10.60;99.90
11666;DHT22;5889;51.350;6.708;2023-11-21T12:30:39;10.70;99.90
11666;DHT22;5889;51.350;6.708;2023-11-21T12:33:06;10.70;99.90
11666;DHT22;5889;51.350;6.708;2023-11-21T12:35:39;10.70;99.90
11666;DHT22;5889;51.350;6.708;2023-11-21T12:38:06;10.70;99.90
11666;DHT22;5889;51.350;6.708;2023-11-21T12:40:34;10.70;99.90
11666;DHT22;5889;51.350;6.708;2023-11-21T12:43:18;10.80;99.90
11666;DHT22;5889;51.350;6.708;2023-11-21T12:45:46;10.80;99.90
11666;DHT22;5889;51.350;6.708;2023-11-21T12:48:12;10.80;99.90
11666;DHT22;5889;51.350;6.708;2023-11-21T12:50:42;10.90;99.90
11666;DHT22;5889;51.350;6.708;2023-11-21T12:53:10;10.80;99.90
11666;DHT22;5889;51.350;6.708;2023-11-21T12:55:38;10.80;99.90
11666;DHT22;5889;51.350;6.708;2023-11-21T12:58:06;10.70;99.90
11666;DHT22;5889;51.350;6.708;2023-11-21T13:00:35;10.70;99.90
11666;DHT22;5889;51.350;6.708;2023-11-21T13:03:05;10.50;99.90
11666;DHT22;5889;51.350;6.708;2023-11-21T13:05:33;10.40;99.90
11666;DHT22;5889;51.350;6.708;2023-11-21T13:08:03;10.30;99.90
11666;DHT22;5889;51.350;6.708;2023-11-21T13:10:33;10.30;99.90
11666;DHT22;5889;51.350;6.708;2023-11-21T13:13:02;10.20;99.90
11666;DHT22;5889;51.350;6.708;2023-11-21T13:15:33;10.20;99.90
11666;DHT22;5889;51.350;6.708;2023-11-21T13:18:02;10.20;99.90
11666;DHT22;5889;51.350;6.708;2023-11-21T13:20:29;10.10;99.90
11666;DHT22;5889;51.350;6.708;2023-11-21T13:22:56;10.10;99.90
11666;DHT22;5889;51.350;6.708;2023-11-21T13:25:26;10.10;99.90
11666;DHT22;5889;51.350;6.708;2023-11-21T13:27:54;10.10;99.90
11666;DHT22;5889;51.350;6.708;2023-11-21T13:30:21;10.00;99.90
11666;DHT22;5889;51.350;6.708;2023-11-21T13:32:48;10.00;99.90
11666;DHT22;5889;51.350;6.708;2023-11-21T13:35:16;10.00;99.90
11666;DHT22;5889;51.350;6.708;2023-11-21T13:37:48;9.90;99.90
11666;DHT22;5889;51.350;6.708;2023-11-21T13:40:20;10.00;99.90
11666;DHT22;5889;51.350;6.708;2023-11-21T13:42:49;9.90;99.90
11666;DHT22;5889;51.350;6.708;2023-11-21T13:45:19;9.80;99.90
11666;DHT22;5889;51.350;6.708;2023-11-21T13:47:48;9.80;99.90
11666;DHT22;5889;51.350;6.708;2023-11-21T13:50:16;9.80;99.90
11666;DHT22;5889;51.350;6.708;2023-11-21T13:52:48;9.90;99.90
11666;DHT22;5889;51.350;6.708;2023-11-21T13:55:15;9.90;99.90
11666;DHT22;5889;51.350;6.708;2023-11-21T13:57:42;10.00;99.90
11666;DHT22;5889;51.350;6.708;2023-11-21T14:00:16;10.00;99.90
11666;DHT22;5889;51.350;6.708;2023-11-21T14:03:00;10.10;99.90
11666;DHT22;5889;51.350;6.708;2023-11-21T14:05:31;10.10;99.90
11666;DHT22;5889;51.350;6.708;2023-11-21T14:07:59;10.10;99.90
11666;DHT22;5889;51.350;6.708;2023-11-21T14:10:30;10.10;99.90
11666;DHT22;5889;51.350;6.708;2023-11-21T14:13:06;10.10;99.90
11666;DHT22;5889;51.350;6.708;2023-11-21T14:15:34;10.10;99.90
11666;DHT22;5889;51.350;6.708;2023-11-21T14:18:04;10.10;99.90
11666;DHT22;5889;51.350;6.708;2023-11-21T14:20:33;10.10;99.90
11666;DHT22;5889;51.350;6.708;2023-11-21T14:23:01;10.10;99.90
11666;DHT22;5889;51.350;6.708;2023-11-21T14:25:28;10.10;99.90
11666;DHT22;5889;51.350;6.708;2023-11-21T14:27:55;10.20;99.90
11666;DHT22;5889;51.350;6.708;2023-11-21T14:30:22;10.20;99.90
11666;DHT22;5889;51.350;6.708;2023-11-21T14:32:51;10.10;99.90
11666;DHT22;5889;51.350;6.708;2023-11-21T14:35:18;10.10;99.90
11666;DHT22;5889;51.350;6.708;2023-11-21T14:37:45;10.10;99.90
11666;DHT22;5889;51.350;6.708;2023-11-21T14:40:12;10.00;99.90
11666;DHT22;5889;51.350;6.708;2023-11-21T14:42:41;10.10;99.90
11666;DHT22;5889;51.350;6.708;2023-11-21T14:45:10;10.10;99.90
11666;DHT22;5889;51.350;6.708;2023-11-21T14:47:38;10.10;99.90
11666;DHT22;5889;51.350;6.708;2023-11-21T14:50:11;10.10;99.90
11666;DHT22;5889;51.350;6.708;2023-11-21T14:53:04;10.10;99.90
11666;DHT22;5889;51.350;6.708;2023-11-21T14:55:32;10.10;99.90
11666;DHT22;5889;51.350;6.708;2023-11-21T14:58:06;10.10;99.90
11666;DHT22;5889;51.350;6.708;2023-11-21T15:00:38;10.10;99.90
11666;DHT22;5889;51.350;6.708;2023-11-21T15:03:10;10.10;99.90
11666;DHT22;5889;51.350;6.708;2023-11-21T15:05:47;10.10;99.90
11666;DHT22;5889;51.350;6.708;2023-11-21T15:08:15;10.10;99.90
11666;DHT22;5889;51.350;6.708;2023-11-21T15:10:47;10.10;99.90
11666;DHT22;5889;51.350;6.708;2023-11-21T15:13:18;10.10;99.90
11666;DHT22;5889;51.350;6.708;2023-11-21T15:15:45;10.10;99.90
11666;DHT22;5889;51.350;6.708;2023-11-21T15:18:11;10.00;99.90
11666;DHT22;5889;51.350;6.708;2023-11-21T15:20:39;10.00;99.90
11666;DHT22;5889;51.350;6.708;2023-11-21T15:23:07;10.00;99.90
11666;DHT22;5889;51.350;6.708;2023-11-21T15:25:35;10.00;99.90
11666;DHT22;5889;51.350;6.708;2023-11-21T15:28:02;10.00;99.90
11666;DHT22;5889;51.350;6.708;2023-11-21T15:30:30;10.00;99.90
11666;DHT22;5889;51.350;6.708;2023-11-21T15:32:57;9.90;99.90
11666;DHT22;5889;51.350;6.708;2023-11-21T15:35:24;10.00;99.90
11666;DHT22;5889;51.350;6.708;2023-11-21T15:37:53;9.90;99.90
11666;DHT22;5889;51.350;6.708;2023-11-21T15:40:22;9.90;99.90
11666;DHT22;5889;51.350;6.708;2023-11-21T15:42:50;9.90;99.90
11666;DHT22;5889;51.350;6.708;2023-11-21T15:45:17;9.90;99.90
11666;DHT22;5889;51.350;6.708;2023-11-21T15:47:46;9.80;99.90
11666;DHT22;5889;51.350;6.708;2023-11-21T15:50:13;9.90;99.90
11666;DHT22;5889;51.350;6.708;2023-11-21T15:52:40;9.90;99.90
11666;DHT22;5889;51.350;6.708;2023-11-21T15:55:09;9.80;99.90
11666;DHT22;5889;51.350;6.708;2023-11-21T15:57:36;9.80;99.90
11666;DHT22;5889;51.350;6.708;2023-11-21T16:00:05;9.80;99.90
11666;DHT22;5889;51.350;6.708;2023-11-21T16:02:41;9.80;99.90
11666;DHT22;5889;51.350;6.708;2023-11-21T16:05:11;9.80;99.90
11666;DHT22;5889;51.350;6.708;2023-11-21T16:07:39;9.80;99.90
11666;DHT22;5889;51.350;6.708;2023-11-21T16:10:07;9.70;99.90